Flight Track Log - Related Links

Times and Time Zones

All times are in EDT time to prevent confusion due to time zone crossing. See the CHQ6029 flight status page for this flight to view local times or setup timezone preferences in your user account.

Time Position Orientation Groundspeed Altitude Reporting Facility
EDT Latitude Longitude Course Direction KTS MPH feet Rate Location/Type
Fri 06:54:51 AM 38.0025 -84.6408 96° East 161 185 2,800  Level Indianapolis Center
Fri 06:55:51 AM 37.9711 -84.5978 133° Southeast 228 262 5,000 2,182 Climbing Indianapolis Center
Fri 06:56:52 AM 37.9667 -84.5100 94° East 244 281 7,200 2,115 Climbing Indianapolis Center
Fri 06:57:00 AM 37.9453 -84.0720 96° East  Level FlightAware Approximate
Fri 06:57:53 AM 37.9631 -84.4144 93° East 264 304 9,300  Level Indianapolis Center
Fri 06:58:00 AM 37.9345 -83.9315 96° East  Level FlightAware Approximate
Fri 06:58:54 AM 37.9583 -84.3069 93° East 300 345 10,600  Level Indianapolis Center
Fri 06:59:00 AM 37.9333 -83.7903 90° East  Level FlightAware Approximate
Fri 06:59:55 AM 37.9533 -84.1861 93° East 333 383 12,000  Level Indianapolis Center
Fri 07:00:00 AM 37.9228 -83.6562 96° East  Level FlightAware Approximate
Fri 07:00:56 AM 37.9481 -84.0594 93° East 354 407 13,700  Level Indianapolis Center
Fri 07:01:57 AM 37.9414 -83.9097 93° East 364 419 15,600 1,721 Climbing Indianapolis Center
Fri 07:02:58 AM 37.9361 -83.7772 93° East 375 432 17,200 1,525 Climbing Indianapolis Center
Fri 07:03:59 AM 37.9289 -83.6422 94° East 380 437 18,700 1,426 Climbing Indianapolis Center
Fri 07:05:00 AM 37.9225 -83.5072 93° East 383 441 20,100 1,426 Climbing Indianapolis Center
Fri 07:06:01 AM 37.9150 -83.3678 94° East 394 453 21,600 1,475 Climbing Indianapolis Center
Fri 07:07:02 AM 37.9086 -83.2247 93° East 404 465 23,100 1,475 Climbing Indianapolis Center
Fri 07:08:03 AM 37.9006 -83.0828 94° East 404 465 24,600 1,426 Climbing Indianapolis Center
Fri 07:09:04 AM 37.8931 -82.9392 94° East 405 466 26,000 1,328 Climbing Indianapolis Center
Fri 07:10:05 AM 37.8864 -82.7986 93° East 401 461 27,300 1,230 Climbing Indianapolis Center
Fri 07:11:06 AM 37.8781 -82.6569 94° East 405 466 28,500 836 Climbing Indianapolis Center
Fri 07:12:07 AM 37.8694 -82.5128 94° East 408 470 29,000 246 Climbing Indianapolis Center
Fri 07:13:08 AM 37.8608 -82.3567 94° East 442 509 29,000  Level Indianapolis Center
Fri 07:14:09 AM 37.8511 -82.1975 94° East 451 519 29,000  Level Indianapolis Center
Fri 07:15:10 AM 37.8436 -82.0542 94° East 439 505 29,000  Level Indianapolis Center
Fri 07:16:11 AM 37.8322 -81.8939 95° East 431 496 29,000  Level Indianapolis Center
Fri 07:17:12 AM 37.8214 -81.7206 94° East 424 488 29,000  Level Indianapolis Center
Fri 07:18:14 AM 37.8114 -81.5725 95° East 422 486 29,000  Level Indianapolis Center
Fri 07:19:15 AM 37.8017 -81.4325 95° East 420 483 29,000  Level Indianapolis Center
Fri 07:20:16 AM 37.7919 -81.2853 95° East 430 495 29,000  Level Indianapolis Center
Fri 07:21:17 AM 37.7817 -81.1328 95° East 446 513 29,000  Level Indianapolis Center
Fri 07:22:09 AM 37.7894 -80.9764 86° East 437 503 29,000  Level Washington Center
Fri 07:23:09 AM 37.7986 -80.8167 86° East 442 509 29,000  Level Washington Center
Fri 07:24:09 AM 37.8111 -80.6731 84° East 454 522 29,000  Level Washington Center
Fri 07:25:09 AM 37.8203 -80.5053 86° East 459 528 29,000  Level Washington Center
Fri 07:26:10 AM 37.8308 -80.3456 85° East 459 528 29,000  Level Washington Center
Fri 07:27:10 AM 37.8414 -80.1806 85° East 459 528 29,000  Level Washington Center
Fri 07:28:09 AM 37.8525 -79.9997 85° East 459 528 29,000  Level Washington Center
Fri 07:29:10 AM 37.8625 -79.8372 85° East 459 528 29,000  Level Washington Center
Fri 07:30:09 AM 37.8722 -79.6747 86° East 459 528 29,000  Level Washington Center
Fri 07:31:11 AM 37.8842 -79.5094 85° East 459 528 29,000  Level Washington Center
Fri 07:32:08 AM 37.8914 -79.3442 87° East 459 528 29,000  Level Washington Center
Fri 07:33:10 AM 37.9006 -79.1789 86° East 464 534 29,000  Level Washington Center
Fri 07:34:11 AM 37.9133 -79.0294 84° East 464 534 29,000  Level Washington Center
Fri 07:35:09 AM 37.9347 -78.8617 81° East 464 534 29,000  Level Washington Center
Fri 07:36:09 AM 37.9536 -78.6967 82° East 475 547 29,000  Level Washington Center
Fri 07:37:10 AM 37.9728 -78.5264 82° East 482 555 29,000  Level Washington Center
Fri 07:38:10 AM 37.9958 -78.3400 81° East 482 555 29,000  Level Washington Center
Fri 07:39:11 AM 38.0114 -78.2036 82° East 482 555 29,000  Level Washington Center
Fri 07:40:09 AM 38.0214 -78.0194 86° East 482 555 29,000  Level Washington Center
Fri 07:41:09 AM 38.0311 -77.8483 86° East 477 549 29,000  Level Washington Center
Fri 07:42:10 AM 38.0425 -77.6747 85° East 477 549 29,000  Level Washington Center
Fri 07:43:11 AM 38.0725 -77.5094 77° East 477 549 29,000  Level Washington Center
Fri 07:44:11 AM 38.1353 -77.3631 61° Northeast 472 543 29,000  Level Washington Center
Fri 07:45:09 AM 38.1978 -77.2192 61° Northeast 461 531 29,000  Level Washington Center
Fri 07:46:10 AM 38.2622 -77.0619 62° Northeast 461 531 29,000  Level Washington Center
Fri 07:47:10 AM 38.3136 -76.9386 62° Northeast 455 524 29,000  Level Washington Center
Fri 07:48:11 AM 38.3714 -76.7992 62° Northeast 440 506 29,000  Level Washington Center
Fri 07:49:09 AM 38.4292 -76.6625 62° Northeast 434 499 29,000  Level Washington Center
Fri 07:50:10 AM 38.4928 -76.5122 62° Northeast 429 494 29,000  Level Washington Center
Fri 07:51:11 AM 38.5503 -76.3722 62° Northeast 429 494 29,000 -51 Level Washington Center
Fri 07:52:08 AM 38.6094 -76.2292 62° Northeast 429 494 28,900 -458 Descending Washington Center
Fri 07:53:09 AM 38.6828 -76.1128 51° Northeast 440 506 28,100 -836 Descending Washington Center
Fri 07:54:10 AM 38.7750 -76.0044 42° Northeast 445 512 27,200 -545 Descending Washington Center
Fri 07:55:10 AM 38.8608 -75.8928 45° Northeast 440 506 27,000 -99 Descending Washington Center
Fri 07:56:11 AM 38.9506 -75.7864 43° Northeast 435 501 27,000  Level Washington Center
Fri 07:57:08 AM 39.0486 -75.6933 36° Northeast 435 501 27,000  Level Washington Center
Fri 07:58:09 AM 39.1467 -75.6022 36° Northeast 430 495 27,000  Level Washington Center
Fri 07:59:10 AM 39.2447 -75.5111 36° Northeast 430 495 27,000 -148 Level Washington Center
Fri 08:00:11 AM 39.3406 -75.4197 36° Northeast 430 495 26,700 -1,109 Descending Washington Center
Fri 08:01:09 AM 39.4383 -75.3364 33° Northeast 424 488 24,800 -1,983 Descending Washington Center
Fri 08:02:09 AM 39.5297 -75.2525 35° Northeast 412 474 22,800 -1,983 Descending Washington Center
Fri 08:03:10 AM 39.6211 -75.1658 36° Northeast 406 467 20,800 -2,016 Descending Washington Center
Fri 08:04:11 AM 39.7186 -75.0817 34° Northeast 398 458 18,700 -1,765 Descending Washington Center
Fri 08:05:09 AM 39.7956 -75.0108 35° Northeast 381 438 17,300 -1,765 Descending Washington Center
Fri 08:06:10 AM 39.8889 -74.9317 33° Northeast 375 432 15,200 -1,970 Descending Washington Center
Fri 08:07:23 AM 39.9833 -74.8167 43° Northeast 355 409 12,900 -1,714 Descending New York TRACON
Fri 08:08:23 AM 40.0500 -74.7167 49° Northeast 365 420 11,400 -1,450 Descending New York TRACON
Fri 08:09:23 AM 40.1167 -74.6167 49° Northeast 382 440 10,000 -650 Descending New York TRACON
Fri 08:10:23 AM 40.1833 -74.5167 49° Northeast 361 415 10,100  Climbing New York TRACON
Fri 08:11:23 AM 40.2667 -74.4333 37° Northeast 363 418 10,000  Descending New York TRACON
Fri 08:12:23 AM 40.3333 -74.3333 49° Northeast 366 421 10,100  Climbing New York TRACON
Fri 08:13:24 AM 40.4000 -74.2333 49° Northeast 365 420 10,000 -95 Descending New York TRACON
Fri 08:14:29 AM 40.4833 -74.1667 31° Northeast 298 343 9,900 -850 Descending New York TRACON
Fri 08:15:24 AM 40.5333 -74.1000 45° Northeast 274 315 8,300 -1,774 Descending New York TRACON
Fri 08:16:24 AM 40.6000 -74.0500 30° Northeast 263 303 6,500 -1,700 Descending New York TRACON
Fri 08:17:24 AM 40.6500 -74.0000 37° Northeast 260 299 4,900 -1,200 Descending New York TRACON
Fri 08:18:24 AM 40.7167 -73.9333 37° Northeast 263 303 4,100 -800 Descending New York TRACON

Login

Don't have an account? Register now (free) for customized features, flight alerts, and more!